Fort Nelson Airport
CYYE : now visible

Airfield :











YOU CAN JOIN US ON...

 
LOGIN :

Register | Disclaimer

   EN    FR    IT 

 









Legend :    VFR   Marginal VFR   IFR   Intensive IFR   Very Intensive IFR
Visi :
Ceiling :
>= 8 km
>= 3000ft
5 to 8 km
1000 to 3000 ft
1500m to 5 km
500 to 1000 ft
800 to 1500m
200 to 500 ft
< 800m
< 200 ft
Symbols :   Thunderstorms  Fog  Heavy snow  Heavy precipitations  Wind > 20 kt






- Airport Elevation : 1253 ft
- IATA code : YYE


CYYE - Fort Nelson

CURRENT METAR :
  • 110436Z 36004KT 15SM -SN OVC012 M15/M17 A3005 RMK SC8 SLP215

EXPIRED METARs :
  • 110413Z 35005KT 15SM -SN OVC009 M15/M17 A3004 RMK SC8 SLP212
  • 110400Z 36006KT 15SM -SN OVC010 M15/M17 A3004 RMK SC8 SLP209
  • 110300Z 02004KT 15SM -SN OVC014 M14/M16 A3003 RMK SC8 SLP208
  • 110200Z 01004KT 15SM -SN OVC013 M14/M16 A3003 RMK SC8 SLP208

TAF TAF CYYE
Valid from the 11 at 01:00 until the 11 at 13:00 UTC


110038Z 1101/1113 00000KT P6SM -SN OVC015
TEMPO 1101/1113 3SM -SN OVC009 RMK NXT FCST BY 110700Z



MET'MAP, your aeronautical weather chart ! - Copyright ORBIFLY December 2007 - Disclaimer

ORBIFLY MET'MAP TEAM :

Programming & Development : Alexandra Zaïnal
Concept & original design : Baudouin d'Aumeries
Assistance for programming : Marc-Olivier Méhu
Technical & hardware support : Manuel Goepfert

Contact : metmap@orbifly.com




SOURCES & CREDITS :

   NOAA       Earth
Advisory